createdAt,value
2022-12-14T00:00:59.890Z,-2.26
2022-12-14T00:02:01.287Z,-2.26
2022-12-14T00:03:02.926Z,-2.26
2022-12-14T00:04:04.601Z,-2.27
2022-12-14T00:05:07.057Z,-2.28
2022-12-14T00:06:09.711Z,-2.29
2022-12-14T00:07:11.092Z,-2.29
2022-12-14T00:08:13.655Z,-2.31
2022-12-14T00:09:15.227Z,-2.31
2022-12-14T00:10:16.630Z,-2.33
2022-12-14T00:11:28.085Z,-2.34
2022-12-14T00:12:29.440Z,-2.36
2022-12-14T00:13:30.763Z,-2.38
2022-12-14T00:14:32.191Z,-2.40
2022-12-14T00:15:35.316Z,-2.42
2022-12-14T00:16:36.754Z,-2.43
2022-12-14T00:17:39.116Z,-2.46
2022-12-14T00:18:40.906Z,-2.48
2022-12-14T00:19:42.538Z,-2.50
2022-12-14T00:20:44.338Z,-2.53
2022-12-14T00:21:45.907Z,-2.56
2022-12-14T00:22:47.340Z,-2.57
2022-12-14T00:23:52.262Z,-2.59
2022-12-14T00:24:53.794Z,-2.61
2022-12-14T00:25:55.424Z,-2.62
2022-12-14T00:26:57.269Z,-2.65
2022-12-14T00:27:58.660Z,-2.67
2022-12-14T00:29:01.039Z,-2.70
2022-12-14T00:30:03.427Z,-2.71
2022-12-14T00:31:05.108Z,-2.73
2022-12-14T00:32:06.556Z,-2.74
2022-12-14T00:33:08.036Z,-2.76
2022-12-14T00:34:09.444Z,-2.78
2022-12-14T00:35:12.165Z,-2.79
2022-12-14T00:36:14.004Z,-2.81
2022-12-14T00:37:15.520Z,-2.82
2022-12-14T00:38:17.448Z,-2.84
2022-12-14T00:39:18.802Z,-2.85
2022-12-14T00:40:20.407Z,-2.87
2022-12-14T00:41:21.943Z,-2.89
2022-12-14T00:42:23.483Z,-2.90
2022-12-14T00:43:25.165Z,-2.92
2022-12-14T00:44:26.604Z,-2.94
2022-12-14T00:45:28.098Z,-2.95
2022-12-14T00:46:29.709Z,-2.98
2022-12-14T00:47:33.875Z,-2.98
2022-12-14T00:48:39.426Z,-3.00
2022-12-14T00:49:41.451Z,-3.00
2022-12-14T00:50:43.995Z,-3.01
2022-12-14T00:51:50.362Z,-3.02
2022-12-14T00:52:51.850Z,-3.03
2022-12-14T00:53:53.290Z,-3.04
2022-12-14T00:54:54.804Z,-3.05
2022-12-14T00:55:56.314Z,-3.06
2022-12-14T00:56:57.856Z,-3.07
2022-12-14T00:57:59.352Z,-3.08
2022-12-14T00:59:00.738Z,-3.09
2022-12-14T01:00:02.473Z,-3.10
2022-12-14T01:01:09.218Z,-3.10
2022-12-14T01:02:10.736Z,-3.11
2022-12-14T01:03:12.700Z,-3.12
2022-12-14T01:04:17.041Z,-3.13
2022-12-14T01:05:18.544Z,-3.13
2022-12-14T01:06:21.775Z,-3.14
2022-12-14T01:07:23.198Z,-3.15
2022-12-14T01:08:24.749Z,-3.16
2022-12-14T01:09:26.435Z,-3.17
2022-12-14T01:10:27.976Z,-3.17
2022-12-14T01:11:29.550Z,-3.17
2022-12-14T01:12:31.069Z,-3.16
2022-12-14T01:13:32.511Z,-3.16
2022-12-14T01:14:35.902Z,-3.16
2022-12-14T01:15:37.383Z,-3.16
2022-12-14T01:16:39.046Z,-3.17
2022-12-14T01:17:40.393Z,-3.17
2022-12-14T01:18:42.574Z,-3.18
2022-12-14T01:19:43.999Z,-3.18
2022-12-14T01:20:50.491Z,-3.19
2022-12-14T01:21:52.816Z,-3.19
2022-12-14T01:22:57.746Z,-3.21
2022-12-14T01:24:00.874Z,-3.21
2022-12-14T01:25:02.762Z,-3.23
2022-12-14T01:26:04.252Z,-3.24
2022-12-14T01:27:05.754Z,-3.25
2022-12-14T01:28:07.207Z,-3.26
2022-12-14T01:29:09.846Z,-3.26
2022-12-14T01:30:11.477Z,-3.28
2022-12-14T01:31:17.822Z,-3.29
2022-12-14T01:32:19.750Z,-3.30
2022-12-14T01:33:21.306Z,-3.31
2022-12-14T01:34:22.709Z,-3.31
2022-12-14T01:35:24.223Z,-3.32
2022-12-14T01:36:27.049Z,-3.34
2022-12-14T01:37:28.626Z,-3.35
2022-12-14T01:38:30.041Z,-3.37
2022-12-14T01:39:31.488Z,-3.37
2022-12-14T01:40:32.879Z,-3.39
2022-12-14T01:41:38.857Z,-3.39
2022-12-14T01:42:40.555Z,-3.39
2022-12-14T01:43:46.463Z,-3.40
2022-12-14T01:44:55.227Z,-3.41
2022-12-14T01:45:57.006Z,-3.43
2022-12-14T01:46:59.149Z,-3.44
2022-12-14T01:48:02.479Z,-3.44
2022-12-14T01:49:15.761Z,-3.46
2022-12-14T01:50:17.470Z,-3.46
2022-12-14T01:51:18.920Z,-3.47
2022-12-14T01:52:40.223Z,-3.47
2022-12-14T01:53:41.969Z,-3.47
2022-12-14T01:54:49.945Z,-3.48
2022-12-14T01:55:52.991Z,-3.50
2022-12-14T01:56:55.006Z,-3.50
2022-12-14T01:58:02.771Z,-3.50
2022-12-14T01:59:07.332Z,-3.51
2022-12-14T02:00:11.954Z,-3.52
2022-12-14T02:01:14.443Z,-3.52
2022-12-14T02:02:16.906Z,-3.53
2022-12-14T02:03:31.324Z,-3.54
2022-12-14T02:04:36.629Z,-3.54
2022-12-14T02:05:42.798Z,-3.54
2022-12-14T02:06:46.010Z,-3.55
2022-12-14T02:07:49.204Z,-3.56
2022-12-14T02:08:52.048Z,-3.58
2022-12-14T02:09:56.293Z,-3.58
2022-12-14T02:10:58.171Z,-3.59
2022-12-14T02:12:19.890Z,-3.61
2022-12-14T02:13:38.343Z,-3.62
2022-12-14T02:14:41.182Z,-3.64
2022-12-14T02:15:43.425Z,-3.66
2022-12-14T02:16:44.967Z,-3.67
2022-12-14T02:17:46.571Z,-3.69
2022-12-14T02:18:47.928Z,-3.70
2022-12-14T02:19:49.894Z,-3.71
2022-12-14T02:20:58.751Z,-3.72
2022-12-14T02:22:17.421Z,-3.74
2022-12-14T02:23:31.019Z,-3.76
2022-12-14T02:24:44.767Z,-3.77
2022-12-14T02:25:56.364Z,-3.79
2022-12-14T02:27:14.794Z,-3.81
2022-12-14T02:28:35.417Z,-3.83
2022-12-14T02:29:49.919Z,-3.85
2022-12-14T02:32:18.452Z,-3.88
2022-12-14T02:33:22.632Z,-3.90
2022-12-14T02:34:31.659Z,-3.91
2022-12-14T02:35:42.305Z,-3.93
2022-12-14T02:36:59.661Z,-3.95
2022-12-14T02:38:16.970Z,-3.98
2022-12-14T02:39:32.593Z,-4.01
2022-12-14T02:41:03.235Z,-4.03
2022-12-14T02:42:13.129Z,-4.06
2022-12-14T02:43:14.496Z,-4.07
2022-12-14T02:44:18.400Z,-4.09
2022-12-14T02:45:38.869Z,-4.10
2022-12-14T02:46:50.044Z,-4.11
2022-12-14T02:47:54.664Z,-4.12
2022-12-14T02:49:15.086Z,-4.14
2022-12-14T02:50:22.972Z,-4.16
2022-12-14T02:51:40.245Z,-4.18
2022-12-14T02:53:00.383Z,-4.20
2022-12-14T02:54:04.473Z,-4.23
2022-12-14T02:55:16.054Z,-4.25
2022-12-14T02:56:22.147Z,-4.27
2022-12-14T02:57:43.890Z,-4.28
2022-12-14T02:58:50.372Z,-4.31
2022-12-14T02:59:53.952Z,-4.33
2022-12-14T03:00:56.027Z,-4.34
2022-12-14T03:02:00.198Z,-4.35
2022-12-14T03:03:03.855Z,-4.36
2022-12-14T03:04:06.046Z,-4.37
2022-12-14T03:05:07.611Z,-4.39
2022-12-14T03:06:17.045Z,-4.40
2022-12-14T03:07:26.172Z,-4.40
2022-12-14T03:08:29.843Z,-4.40
2022-12-14T03:09:31.894Z,-4.41
2022-12-14T03:10:42.116Z,-4.42
2022-12-14T03:12:02.129Z,-4.42
2022-12-14T03:13:15.956Z,-4.44
2022-12-14T03:14:24.966Z,-4.45
2022-12-14T03:15:27.647Z,-4.46
2022-12-14T03:16:30.573Z,-4.47
2022-12-14T03:17:33.404Z,-4.47
2022-12-14T03:18:37.138Z,-4.48
2022-12-14T03:19:45.594Z,-4.49
2022-12-14T03:20:51.731Z,-4.49
2022-12-14T03:21:55.605Z,-4.51
2022-12-14T03:22:59.213Z,-4.51
2022-12-14T03:24:02.604Z,-4.52
2022-12-14T03:25:24.866Z,-4.52
2022-12-14T03:26:26.307Z,-4.54
2022-12-14T03:27:32.344Z,-4.55
2022-12-14T03:28:44.911Z,-4.55
2022-12-14T03:29:53.026Z,-4.55
2022-12-14T03:31:00.973Z,-4.57
2022-12-14T03:32:06.373Z,-4.58
2022-12-14T03:33:11.690Z,-4.59
2022-12-14T03:34:14.905Z,-4.60
2022-12-14T03:35:32.190Z,-4.60
2022-12-14T03:36:56.169Z,-4.62
2022-12-14T03:38:07.631Z,-4.64
2022-12-14T03:39:12.279Z,-4.67
2022-12-14T03:40:14.212Z,-4.69
2022-12-14T03:41:21.671Z,-4.70
2022-12-14T03:42:38.636Z,-4.73
2022-12-14T03:43:58.676Z,-4.75
2022-12-14T03:45:18.696Z,-4.78
2022-12-14T03:46:22.847Z,-4.79
2022-12-14T03:47:34.608Z,-4.81
2022-12-14T03:48:40.202Z,-4.83
2022-12-14T03:49:50.807Z,-4.84
2022-12-14T03:51:24.157Z,-4.85
2022-12-14T03:52:41.714Z,-4.88
2022-12-14T03:54:01.645Z,-4.89
2022-12-14T03:55:05.884Z,-4.89
2022-12-14T03:56:26.181Z,-4.91
2022-12-14T03:57:46.263Z,-4.93
2022-12-14T03:58:56.810Z,-4.94
2022-12-14T04:00:09.916Z,-4.95
2022-12-14T04:01:29.310Z,-4.96
2022-12-14T04:02:39.161Z,-4.98
2022-12-14T04:03:51.608Z,-4.98
2022-12-14T04:04:57.086Z,-4.99
2022-12-14T04:06:02.223Z,-5.00
2022-12-14T04:07:06.477Z,-5.01
2022-12-14T04:08:07.943Z,-5.02
2022-12-14T04:09:15.416Z,-5.02
2022-12-14T04:10:40.977Z,-5.03
2022-12-14T04:12:05.255Z,-5.06
2022-12-14T04:13:30.594Z,-5.07
2022-12-14T04:15:03.598Z,-5.09
2022-12-14T04:16:26.546Z,-5.11
2022-12-14T04:17:49.323Z,-5.12
2022-12-14T04:19:00.053Z,-5.13
2022-12-14T04:20:04.717Z,-5.15
2022-12-14T04:21:19.155Z,-5.16
2022-12-14T04:22:23.165Z,-5.16
2022-12-14T04:23:49.252Z,-5.18
2022-12-14T04:25:15.836Z,-5.19
2022-12-14T04:26:22.115Z,-5.19
2022-12-14T04:27:34.612Z,-5.20
2022-12-14T04:29:04.084Z,-5.21
2022-12-14T04:30:06.688Z,-5.20
2022-12-14T04:31:09.856Z,-5.21
2022-12-14T04:32:22.650Z,-5.22
2022-12-14T04:33:42.863Z,-5.23
2022-12-14T04:34:47.352Z,-5.25
2022-12-14T04:35:49.676Z,-5.25
2022-12-14T04:36:55.267Z,-5.26
2022-12-14T04:37:59.754Z,-5.26
2022-12-14T04:39:05.820Z,-5.28
2022-12-14T04:40:09.944Z,-5.29
2022-12-14T04:41:14.010Z,-5.28
2022-12-14T04:42:17.950Z,-5.28
2022-12-14T04:43:21.772Z,-5.28
2022-12-14T04:44:27.983Z,-5.28
2022-12-14T04:45:32.223Z,-5.28
2022-12-14T04:46:40.494Z,-5.28
2022-12-14T04:47:45.472Z,-5.28
2022-12-14T04:49:05.434Z,-5.28
2022-12-14T04:50:14.236Z,-5.28
2022-12-14T04:51:33.837Z,-5.29
2022-12-14T04:52:41.841Z,-5.29
2022-12-14T04:53:45.019Z,-5.29
2022-12-14T04:54:53.088Z,-5.30
2022-12-14T04:56:07.921Z,-5.31
2022-12-14T04:57:28.816Z,-5.31
2022-12-14T04:58:31.041Z,-5.32
2022-12-14T04:59:32.417Z,-5.32
2022-12-14T05:00:36.341Z,-5.33
2022-12-14T05:01:45.934Z,-5.33
2022-12-14T05:02:56.471Z,-5.33
2022-12-14T05:04:06.066Z,-5.34
2022-12-14T05:05:28.341Z,-5.33
2022-12-14T05:06:37.184Z,-5.33
2022-12-14T05:07:56.780Z,-5.34
2022-12-14T05:09:01.146Z,-5.35
2022-12-14T05:10:02.518Z,-5.34
2022-12-14T05:11:49.645Z,-5.34
2022-12-14T05:12:33.789Z,-5.35
2022-12-14T05:13:49.152Z,-5.35
2022-12-14T05:14:53.576Z,-5.35
2022-12-14T05:15:55.941Z,-5.35
2022-12-14T05:16:57.652Z,-5.34
2022-12-14T05:18:03.151Z,-5.34
2022-12-14T05:19:08.804Z,-5.33
2022-12-14T05:20:15.540Z,-5.32
2022-12-14T05:21:35.324Z,-5.31
2022-12-14T05:22:38.099Z,-5.31
2022-12-14T05:23:39.694Z,-5.31
2022-12-14T05:24:41.167Z,-5.28
2022-12-14T05:25:42.581Z,-5.27
2022-12-14T05:26:44.331Z,-5.26
2022-12-14T05:27:46.027Z,-5.25
2022-12-14T05:28:50.497Z,-5.24
2022-12-14T05:29:52.228Z,-5.23
2022-12-14T05:30:53.684Z,-5.22
2022-12-14T05:31:55.214Z,-5.23
2022-12-14T05:32:56.829Z,-5.22
2022-12-14T05:33:58.510Z,-5.21
2022-12-14T05:35:00.368Z,-5.21
2022-12-14T05:36:01.978Z,-5.21
2022-12-14T05:37:03.569Z,-5.20
2022-12-14T05:38:07.732Z,-5.20
2022-12-14T05:39:09.185Z,-5.18
2022-12-14T05:40:10.917Z,-5.17
2022-12-14T05:41:12.528Z,-5.16
2022-12-14T05:42:13.974Z,-5.17
2022-12-14T05:43:15.422Z,-5.17
2022-12-14T05:44:16.755Z,-5.17
2022-12-14T05:45:18.161Z,-5.17
2022-12-14T05:46:19.591Z,-5.17
2022-12-14T05:47:21.075Z,-5.16
2022-12-14T05:48:22.387Z,-5.15
2022-12-14T05:49:24.602Z,-5.14
2022-12-14T05:50:26.230Z,-5.14
2022-12-14T05:51:27.630Z,-5.13
2022-12-14T05:52:29.086Z,-5.13
2022-12-14T05:53:30.717Z,-5.12
2022-12-14T05:54:32.413Z,-5.12
2022-12-14T05:55:33.945Z,-5.11
2022-12-14T05:56:35.446Z,-5.11
2022-12-14T05:57:36.963Z,-5.11
2022-12-14T05:58:38.762Z,-5.11
2022-12-14T05:59:40.294Z,-5.10
2022-12-14T06:00:41.823Z,-5.09
2022-12-14T06:01:44.231Z,-5.07
2022-12-14T06:02:45.916Z,-5.09
2022-12-14T06:03:47.583Z,-5.11
2022-12-14T06:04:49.240Z,-5.13
2022-12-14T06:05:50.732Z,-5.14
2022-12-14T06:06:52.196Z,-5.14
2022-12-14T06:07:53.642Z,-5.13
2022-12-14T06:08:55.129Z,-5.14
2022-12-14T06:09:56.597Z,-5.16
2022-12-14T06:11:07.873Z,-5.16
2022-12-14T06:12:09.426Z,-5.17
2022-12-14T06:13:10.926Z,-5.16
2022-12-14T06:14:12.842Z,-5.17
2022-12-14T06:15:14.300Z,-5.19
2022-12-14T06:16:16.888Z,-5.18
2022-12-14T06:17:18.344Z,-5.18
2022-12-14T06:18:19.841Z,-5.18
2022-12-14T06:19:21.253Z,-5.18
2022-12-14T06:20:22.746Z,-5.20
2022-12-14T06:21:28.516Z,-5.21
2022-12-14T06:22:29.886Z,-5.21
2022-12-14T06:23:31.263Z,-5.21
2022-12-14T06:24:32.584Z,-5.22
2022-12-14T06:25:36.507Z,-5.23
2022-12-14T06:26:40.252Z,-5.22
2022-12-14T06:27:41.741Z,-5.23
2022-12-14T06:28:43.679Z,-5.25
2022-12-14T06:29:45.164Z,-5.26
2022-12-14T06:30:47.545Z,-5.26
2022-12-14T06:31:49.732Z,-5.29
2022-12-14T06:32:51.230Z,-5.31
2022-12-14T06:33:54.058Z,-5.31
2022-12-14T06:34:55.578Z,-5.32
2022-12-14T06:35:57.167Z,-5.33
2022-12-14T06:36:59.972Z,-5.34
2022-12-14T06:38:01.565Z,-5.34
2022-12-14T06:39:05.561Z,-5.35
2022-12-14T06:40:07.399Z,-5.37
2022-12-14T06:41:09.083Z,-5.37
2022-12-14T06:42:10.822Z,-5.38
2022-12-14T06:43:12.710Z,-5.40
2022-12-14T06:44:14.259Z,-5.40
2022-12-14T06:45:15.707Z,-5.40
2022-12-14T06:46:19.157Z,-5.40
2022-12-14T06:47:20.853Z,-5.42
2022-12-14T06:48:22.341Z,-5.43
2022-12-14T06:49:24.057Z,-5.44
2022-12-14T06:50:26.978Z,-5.44
2022-12-14T06:51:28.539Z,-5.44
2022-12-14T06:52:29.984Z,-5.45
2022-12-14T06:53:32.414Z,-5.48
2022-12-14T06:54:33.881Z,-5.52
2022-12-14T06:55:35.295Z,-5.55
2022-12-14T06:56:37.697Z,-5.60
2022-12-14T06:57:39.229Z,-5.63
2022-12-14T06:58:41.011Z,-5.64
2022-12-14T06:59:42.543Z,-5.65
2022-12-14T07:00:43.953Z,-5.68
